createdAt,value
2024-01-16T00:01:36.631Z,2.00
2024-01-16T00:04:04.843Z,1.90
2024-01-16T00:06:32.889Z,2.10
2024-01-16T00:09:00.829Z,2.00
2024-01-16T00:11:28.808Z,2.08
2024-01-16T00:13:56.788Z,2.00
2024-01-16T00:16:24.793Z,1.77
2024-01-16T00:18:54.159Z,1.92
2024-01-16T00:21:22.146Z,1.83
2024-01-16T00:23:50.170Z,1.95
2024-01-16T00:26:24.414Z,1.90
2024-01-16T00:28:52.408Z,2.92
2024-01-16T00:31:21.698Z,2.92
2024-01-16T00:33:49.761Z,3.00
2024-01-16T00:36:19.136Z,3.08
2024-01-16T00:38:47.115Z,2.63
2024-01-16T00:41:16.163Z,2.08
2024-01-16T00:43:44.737Z,2.03
2024-01-16T00:46:12.877Z,2.15
2024-01-16T00:48:41.230Z,2.13
2024-01-16T00:51:09.226Z,0.98
2024-01-16T00:53:43.549Z,1.75
2024-01-16T00:56:11.259Z,2.05
2024-01-16T00:58:39.361Z,1.83
2024-01-16T01:01:07.380Z,2.42
2024-01-16T01:03:35.451Z,1.80
2024-01-16T01:06:03.924Z,2.53
2024-01-16T01:08:32.068Z,1.80
2024-01-16T01:11:01.421Z,2.17
2024-01-16T01:13:29.995Z,1.77
2024-01-16T01:15:58.244Z,2.42
2024-01-16T01:18:26.333Z,1.77
2024-01-16T01:20:54.439Z,2.42
2024-01-16T01:23:22.458Z,2.05
2024-01-16T01:25:50.495Z,1.38
2024-01-16T01:28:19.860Z,2.35
2024-01-16T01:30:47.969Z,1.75
2024-01-16T01:33:16.124Z,2.20
2024-01-16T01:35:44.214Z,1.48
2024-01-16T01:38:12.346Z,1.17
2024-01-16T01:40:40.285Z,1.27
2024-01-16T01:43:30.514Z,1.00
2024-01-16T01:46:15.449Z,1.27
2024-01-16T01:48:44.040Z,0.82
2024-01-16T01:51:13.492Z,1.10
2024-01-16T01:53:44.028Z,1.08
2024-01-16T01:56:17.061Z,1.30
2024-01-16T01:58:49.804Z,1.08
2024-01-16T02:01:21.444Z,0.82
2024-01-16T02:03:51.439Z,1.00
2024-01-16T02:06:19.624Z,0.60
2024-01-16T02:08:47.846Z,0.93
2024-01-16T02:11:16.086Z,0.68
2024-01-16T02:13:44.142Z,0.30
2024-01-16T02:16:21.988Z,1.00
2024-01-16T02:18:50.482Z,0.52
2024-01-16T02:21:22.476Z,0.70
2024-01-16T02:23:52.040Z,0.77
2024-01-16T02:26:20.738Z,1.33
2024-01-16T02:28:48.772Z,0.68
2024-01-16T02:31:17.637Z,1.17
2024-01-16T02:33:45.897Z,0.80
2024-01-16T02:36:14.002Z,0.68
2024-01-16T02:38:44.469Z,1.08
2024-01-16T02:41:17.010Z,1.35
2024-01-16T02:43:45.259Z,1.00
2024-01-16T02:46:13.922Z,1.40
2024-01-16T02:48:43.528Z,1.40
2024-01-16T02:51:11.779Z,1.95
2024-01-16T02:53:39.802Z,1.52
2024-01-16T02:56:08.005Z,3.08
2024-01-16T02:58:37.338Z,2.10
2024-01-16T03:01:05.576Z,2.90
2024-01-16T03:03:33.673Z,2.90
2024-01-16T03:06:01.863Z,2.40
2024-01-16T03:08:30.157Z,2.28
2024-01-16T03:10:58.192Z,3.15
2024-01-16T03:13:26.183Z,3.15
2024-01-16T03:15:55.462Z,2.92
2024-01-16T03:20:51.725Z,3.90
2024-01-16T03:23:20.060Z,3.58
2024-01-16T03:25:48.115Z,3.40
2024-01-16T03:28:16.101Z,4.03
2024-01-16T03:30:44.188Z,3.60
2024-01-16T03:33:13.622Z,3.25
2024-01-16T03:35:41.650Z,3.50
2024-01-16T03:38:09.806Z,3.90
2024-01-16T03:40:37.830Z,3.60
2024-01-16T03:43:06.550Z,3.17
2024-01-16T03:45:34.524Z,2.58
2024-01-16T03:48:02.707Z,3.63
2024-01-16T03:50:32.192Z,2.78
2024-01-16T03:53:00.176Z,3.08
2024-01-16T03:55:28.185Z,2.38
2024-01-16T03:57:56.117Z,3.13
2024-01-16T04:00:24.071Z,2.55
2024-01-16T04:02:52.107Z,2.08
2024-01-16T04:05:20.202Z,3.45
2024-01-16T04:07:49.600Z,2.58
2024-01-16T04:10:17.533Z,2.55
2024-01-16T04:12:45.476Z,2.58
2024-01-16T04:15:13.435Z,1.85
2024-01-16T04:17:41.496Z,2.70
2024-01-16T04:20:10.405Z,2.70
2024-01-16T04:22:38.557Z,1.98
2024-01-16T04:25:08.540Z,2.53
2024-01-16T04:27:36.493Z,2.33
2024-01-16T04:30:05.273Z,2.03
2024-01-16T04:32:33.522Z,1.98
2024-01-16T04:35:01.561Z,2.42
2024-01-16T04:37:29.545Z,2.03
2024-01-16T04:39:59.074Z,2.30
2024-01-16T04:42:29.021Z,1.98
2024-01-16T04:47:25.050Z,2.30
2024-01-16T04:49:53.049Z,2.47
2024-01-16T04:52:21.021Z,2.40
2024-01-16T04:54:48.981Z,1.92
2024-01-16T04:57:16.962Z,2.30
2024-01-16T04:59:46.301Z,2.78
2024-01-16T05:02:15.340Z,1.80
2024-01-16T05:04:43.399Z,2.72
2024-01-16T05:07:11.339Z,2.35
2024-01-16T05:09:39.288Z,2.17
2024-01-16T05:12:07.668Z,2.70
2024-01-16T05:14:35.760Z,1.90
2024-01-16T05:17:05.432Z,2.70
2024-01-16T05:19:33.377Z,1.70
2024-01-16T05:22:01.455Z,2.30
2024-01-16T05:24:29.413Z,2.35
2024-01-16T05:26:57.410Z,2.08
2024-01-16T05:29:26.154Z,2.13
2024-01-16T05:31:54.167Z,2.40
2024-01-16T05:34:23.494Z,2.33
2024-01-16T05:36:51.501Z,2.35
2024-01-16T05:39:19.466Z,2.00
2024-01-16T05:41:47.435Z,2.08
2024-01-16T05:44:15.546Z,2.65
2024-01-16T05:46:43.571Z,2.10
2024-01-16T05:49:11.599Z,1.90
2024-01-16T05:51:40.961Z,2.38
2024-01-16T05:54:08.914Z,1.77
2024-01-16T05:56:37.126Z,1.95
2024-01-16T05:59:05.577Z,0.88
2024-01-16T06:01:33.542Z,2.00
2024-01-16T06:04:01.547Z,1.80
2024-01-16T06:06:29.548Z,2.10
2024-01-16T06:09:00.697Z,2.65
2024-01-16T06:11:32.650Z,2.83
2024-01-16T06:14:01.230Z,2.63
2024-01-16T06:16:30.551Z,2.28
2024-01-16T06:18:58.651Z,2.25
2024-01-16T06:21:27.786Z,1.98
2024-01-16T06:23:55.812Z,2.13
2024-01-16T06:26:25.341Z,2.08
2024-01-16T06:28:53.379Z,1.92
2024-01-16T06:31:21.512Z,2.20
2024-01-16T06:33:49.930Z,1.98
2024-01-16T06:36:18.228Z,2.60
2024-01-16T06:38:46.274Z,2.03
2024-01-16T06:41:14.394Z,1.67
2024-01-16T06:43:43.772Z,2.83
2024-01-16T06:46:12.257Z,1.52
2024-01-16T06:48:40.444Z,2.17
2024-01-16T06:51:09.129Z,2.28
2024-01-16T06:53:37.161Z,1.35
2024-01-16T06:56:07.981Z,2.15
2024-01-16T06:58:36.280Z,3.25
2024-01-16T07:01:06.218Z,2.60
2024-01-16T07:03:34.181Z,1.50
2024-01-16T07:06:02.396Z,2.35
2024-01-16T07:08:30.515Z,2.15
2024-01-16T07:10:58.785Z,1.85
2024-01-16T07:13:26.789Z,2.70
2024-01-16T07:15:54.729Z,2.40
2024-01-16T07:18:24.159Z,2.53
2024-01-16T07:20:52.515Z,1.98
2024-01-16T07:23:20.818Z,2.38
2024-01-16T07:25:48.777Z,2.70
2024-01-16T07:28:16.785Z,2.45
2024-01-16T07:30:44.862Z,2.35
2024-01-16T07:33:13.278Z,2.70
2024-01-16T07:35:44.958Z,2.65
2024-01-16T07:38:12.975Z,2.78
2024-01-16T07:40:40.995Z,2.35
2024-01-16T07:43:08.967Z,2.53
2024-01-16T07:45:36.922Z,3.00
2024-01-16T07:48:05.706Z,3.58
2024-01-16T07:50:33.928Z,2.50
2024-01-16T07:53:03.242Z,3.00
2024-01-16T07:57:59.067Z,3.45
2024-01-16T08:00:28.502Z,4.68
2024-01-16T08:02:56.579Z,3.28
2024-01-16T08:05:26.719Z,2.90
2024-01-16T08:07:54.810Z,2.92
2024-01-16T08:10:24.232Z,2.92
2024-01-16T08:12:52.466Z,2.88
2024-01-16T08:15:20.402Z,2.28
2024-01-16T08:17:49.069Z,5.32
2024-01-16T08:20:17.277Z,2.65
2024-01-16T08:22:45.328Z,3.20
2024-01-16T08:25:13.554Z,2.90
2024-01-16T08:27:44.788Z,2.60
2024-01-16T08:30:13.568Z,3.13
2024-01-16T08:32:41.774Z,3.22
2024-01-16T08:35:10.689Z,3.10
2024-01-16T08:37:38.700Z,2.95
2024-01-16T08:40:07.845Z,27.80
2024-01-16T08:42:35.792Z,16.70
2024-01-16T08:45:06.281Z,8.38
2024-01-16T08:47:34.717Z,18.70
2024-01-16T08:50:03.257Z,27.85
2024-01-16T08:52:31.824Z,15.88
2024-01-16T08:55:00.253Z,4.05
2024-01-16T08:57:30.906Z,8.68
2024-01-16T08:59:59.240Z,19.55
2024-01-16T09:02:30.056Z,11.30
2024-01-16T09:04:58.438Z,3.70
2024-01-16T09:07:26.464Z,3.08
2024-01-16T09:09:54.729Z,2.88
2024-01-16T09:12:22.685Z,3.25
2024-01-16T09:14:50.732Z,3.65
2024-01-16T09:17:18.781Z,3.25
2024-01-16T09:19:48.207Z,4.47
2024-01-16T09:22:17.141Z,3.58
2024-01-16T09:24:45.129Z,3.55
2024-01-16T09:27:15.276Z,3.08
2024-01-16T09:29:43.312Z,3.60
2024-01-16T09:32:11.526Z,2.95
2024-01-16T09:34:40.972Z,3.72
2024-01-16T09:37:10.335Z,3.20
2024-01-16T09:39:39.072Z,2.75
2024-01-16T09:42:07.434Z,2.80
2024-01-16T09:44:36.387Z,3.35
2024-01-16T09:47:05.554Z,3.40
2024-01-16T09:49:33.551Z,3.13
2024-01-16T09:52:02.955Z,3.22
2024-01-16T09:54:32.342Z,3.75
2024-01-16T09:57:01.135Z,3.17
2024-01-16T09:59:31.143Z,3.97
2024-01-16T10:01:59.324Z,3.63
2024-01-16T10:04:29.009Z,3.17
2024-01-16T10:06:58.830Z,4.03
2024-01-16T10:09:26.890Z,3.97
2024-01-16T10:11:56.795Z,3.05
2024-01-16T10:14:26.315Z,3.20
2024-01-16T10:16:58.883Z,2.92
2024-01-16T10:19:38.889Z,4.05
2024-01-16T10:22:13.905Z,3.25
2024-01-16T10:24:43.008Z,2.20
2024-01-16T10:27:12.330Z,2.55
2024-01-16T10:29:58.125Z,3.20
2024-01-16T10:32:33.607Z,3.00
2024-01-16T10:37:43.388Z,4.03
2024-01-16T10:40:12.122Z,3.17
2024-01-16T10:42:41.660Z,3.33
2024-01-16T10:45:11.187Z,2.78
2024-01-16T10:47:39.311Z,2.80
2024-01-16T10:50:10.416Z,2.92
2024-01-16T10:52:47.986Z,3.58
2024-01-16T10:55:21.676Z,2.63
2024-01-16T10:57:52.591Z,3.83
2024-01-16T11:00:22.915Z,3.20
2024-01-16T11:03:06.369Z,3.13
2024-01-16T11:05:35.886Z,3.42
2024-01-16T11:08:04.926Z,4.25
2024-01-16T11:10:34.001Z,4.93
2024-01-16T11:13:06.839Z,2.80
2024-01-16T11:15:35.186Z,4.07
2024-01-16T11:18:05.884Z,5.22
2024-01-16T11:20:55.288Z,10.48
2024-01-16T11:23:23.270Z,7.72
2024-01-16T11:25:51.344Z,3.35
2024-01-16T11:28:21.037Z,3.35
2024-01-16T11:30:49.353Z,3.20
2024-01-16T11:33:44.591Z,3.28
2024-01-16T11:36:51.466Z,3.53
2024-01-16T11:39:21.067Z,3.22
2024-01-16T11:41:53.675Z,3.53
2024-01-16T11:44:43.783Z,2.80
2024-01-16T11:47:17.764Z,3.00
2024-01-16T11:49:47.908Z,3.60
2024-01-16T11:52:16.721Z,3.25
2024-01-16T11:54:45.248Z,3.78
2024-01-16T11:57:43.724Z,3.35
2024-01-16T12:00:22.204Z,4.15
2024-01-16T12:02:58.728Z,2.92
2024-01-16T12:05:27.531Z,3.50
2024-01-16T12:07:56.170Z,3.55
2024-01-16T12:10:26.452Z,2.70
2024-01-16T12:13:03.144Z,3.22
2024-01-16T12:15:35.326Z,3.28
2024-01-16T12:18:05.268Z,2.90
2024-01-16T12:20:34.591Z,3.05
2024-01-16T12:23:04.728Z,2.58
2024-01-16T12:26:00.497Z,3.50
2024-01-16T12:28:31.962Z,2.30
2024-01-16T12:31:04.051Z,3.88
2024-01-16T12:33:32.833Z,3.88
2024-01-16T12:36:06.570Z,3.33
2024-01-16T12:38:36.150Z,3.22
2024-01-16T12:41:07.543Z,3.15
2024-01-16T12:43:35.685Z,3.70
2024-01-16T12:46:05.447Z,2.72
2024-01-16T12:48:33.667Z,3.50
2024-01-16T12:51:03.381Z,3.55
2024-01-16T12:53:32.973Z,3.40
2024-01-16T12:56:03.398Z,2.50
2024-01-16T12:58:36.246Z,3.03
2024-01-16T13:01:38.431Z,2.95
2024-01-16T13:04:09.197Z,2.38
2024-01-16T13:06:38.426Z,3.17
2024-01-16T13:11:50.478Z,2.40
2024-01-16T13:14:18.859Z,2.35
2024-01-16T13:16:48.743Z,2.75
2024-01-16T13:19:19.527Z,2.20
2024-01-16T13:21:47.662Z,2.97
2024-01-16T13:24:15.791Z,2.75
2024-01-16T13:26:44.604Z,2.88
2024-01-16T13:29:12.850Z,3.72
2024-01-16T13:31:41.225Z,3.00
2024-01-16T13:34:10.947Z,2.97
2024-01-16T13:36:54.066Z,2.53
2024-01-16T13:39:27.086Z,2.85
2024-01-16T13:41:55.319Z,2.60
2024-01-16T13:44:23.517Z,2.67
2024-01-16T13:47:00.898Z,2.20
2024-01-16T13:49:35.716Z,2.90
2024-01-16T13:52:04.536Z,2.42
2024-01-16T13:54:33.157Z,2.25
2024-01-16T13:57:06.879Z,2.00
2024-01-16T13:59:37.446Z,2.45
2024-01-16T14:02:07.207Z,2.80
2024-01-16T14:04:36.633Z,2.35
2024-01-16T14:07:12.374Z,2.42
2024-01-16T14:09:45.101Z,2.17
2024-01-16T14:12:15.166Z,2.33
2024-01-16T14:14:44.687Z,2.45
2024-01-16T14:19:42.468Z,3.00
2024-01-16T14:22:10.994Z,2.05
2024-01-16T14:24:39.473Z,2.75
2024-01-16T14:27:08.194Z,2.40
2024-01-16T14:29:39.093Z,3.38
2024-01-16T14:32:07.886Z,2.22
2024-01-16T14:34:36.078Z,2.28
2024-01-16T14:37:06.123Z,3.28
2024-01-16T14:39:34.204Z,2.60
2024-01-16T14:42:03.490Z,3.10
2024-01-16T14:44:31.593Z,1.73
2024-01-16T14:46:59.790Z,2.80
2024-01-16T14:49:32.651Z,2.45
2024-01-16T14:52:02.413Z,1.98
2024-01-16T14:54:32.072Z,2.67
2024-01-16T14:57:00.254Z,2.20
2024-01-16T14:59:28.514Z,2.30
2024-01-16T15:01:56.681Z,2.10
2024-01-16T15:04:24.957Z,2.75
2024-01-16T15:06:54.056Z,2.45
2024-01-16T15:11:52.315Z,2.53
2024-01-16T15:14:20.549Z,2.20
2024-01-16T15:16:48.697Z,2.33
2024-01-16T15:19:17.423Z,2.47
2024-01-16T15:21:46.113Z,2.85
2024-01-16T15:24:21.097Z,2.60
2024-01-16T15:26:49.233Z,3.10
2024-01-16T15:29:18.760Z,2.63
2024-01-16T15:31:47.125Z,2.53
2024-01-16T15:34:17.201Z,2.10
2024-01-16T15:36:46.085Z,2.20
2024-01-16T15:39:16.809Z,2.95
2024-01-16T15:41:46.042Z,3.42
2024-01-16T15:47:01.270Z,3.10
2024-01-16T15:49:30.088Z,2.20
2024-01-16T15:52:00.241Z,2.60
2024-01-16T15:54:29.120Z,2.47
2024-01-16T15:56:57.346Z,2.38
2024-01-16T15:59:26.805Z,2.50
2024-01-16T16:01:55.001Z,2.50
2024-01-16T16:04:25.286Z,3.20
2024-01-16T16:06:53.469Z,2.75
2024-01-16T16:09:21.750Z,3.03
2024-01-16T16:11:50.497Z,2.72
2024-01-16T16:14:20.633Z,3.05
2024-01-16T16:16:51.032Z,3.55
2024-01-16T16:19:19.790Z,2.97
2024-01-16T16:21:51.466Z,3.25
2024-01-16T16:24:19.569Z,3.20
2024-01-16T16:26:47.910Z,2.95
2024-01-16T16:29:16.036Z,3.20
2024-01-16T16:31:44.514Z,3.13
2024-01-16T16:34:15.935Z,2.97
2024-01-16T16:36:44.325Z,3.45
2024-01-16T16:39:17.852Z,3.53
2024-01-16T16:41:46.160Z,2.97
2024-01-16T16:44:15.026Z,3.30
2024-01-16T16:46:43.198Z,4.03
2024-01-16T16:49:11.432Z,4.40
2024-01-16T16:51:43.148Z,3.75
2024-01-16T16:54:13.450Z,8.15
2024-01-16T16:56:43.526Z,3.72
2024-01-16T16:59:12.073Z,10.68
2024-01-16T17:01:40.884Z,3.15
2024-01-16T17:04:09.381Z,3.05
2024-01-16T17:06:38.100Z,2.80
2024-01-16T17:09:07.882Z,2.90
2024-01-16T17:11:37.618Z,3.05
2024-01-16T17:14:06.610Z,2.53
2024-01-16T17:16:34.703Z,2.50
2024-01-16T17:19:02.935Z,2.83
2024-01-16T17:21:31.128Z,2.63
2024-01-16T17:24:01.091Z,2.90
2024-01-16T17:26:31.338Z,3.38
2024-01-16T17:29:02.047Z,3.45
2024-01-16T17:31:31.515Z,3.05
2024-01-16T17:33:59.745Z,3.25
2024-01-16T17:36:29.794Z,3.17
2024-01-16T17:39:00.622Z,3.25
2024-01-16T17:41:30.494Z,3.50
2024-01-16T17:44:00.401Z,4.88
2024-01-16T17:46:28.429Z,3.65
2024-01-16T17:48:57.516Z,5.10
2024-01-16T17:51:26.215Z,4.97
2024-01-16T17:53:54.629Z,4.22
2024-01-16T17:56:25.372Z,4.43
2024-01-16T17:58:55.063Z,3.75
2024-01-16T18:01:24.556Z,3.67
2024-01-16T18:03:53.497Z,3.88
2024-01-16T18:06:23.147Z,5.03
2024-01-16T18:08:51.557Z,4.22
2024-01-16T18:11:19.841Z,3.95
2024-01-16T18:13:47.935Z,3.17
2024-01-16T18:16:18.029Z,4.13
2024-01-16T18:18:47.617Z,3.22
2024-01-16T18:21:16.844Z,2.97
2024-01-16T18:23:45.088Z,3.35
2024-01-16T18:26:14.648Z,3.45
2024-01-16T18:28:43.806Z,3.08
2024-01-16T18:31:14.242Z,3.60
2024-01-16T18:33:42.658Z,3.97
2024-01-16T18:36:12.222Z,4.20
2024-01-16T18:38:41.516Z,5.10
2024-01-16T18:41:10.093Z,4.95
2024-01-16T18:43:38.271Z,5.53
2024-01-16T18:46:07.155Z,4.45
2024-01-16T18:48:36.035Z,12.70
2024-01-16T18:51:05.733Z,4.05
2024-01-16T18:53:35.256Z,4.70
2024-01-16T18:56:06.632Z,4.95
2024-01-16T18:58:34.835Z,4.45
2024-01-16T19:01:03.049Z,4.15
2024-01-16T19:03:32.077Z,4.97
2024-01-16T19:06:00.424Z,6.43
2024-01-16T19:08:28.661Z,5.60
2024-01-16T19:10:58.027Z,5.53
2024-01-16T19:13:26.297Z,5.45
2024-01-16T19:15:54.454Z,5.00
2024-01-16T19:18:22.929Z,5.82
2024-01-16T19:20:53.402Z,5.68
2024-01-16T19:23:22.145Z,7.80
2024-01-16T19:25:50.443Z,5.50
2024-01-16T19:28:20.255Z,6.22
2024-01-16T19:30:48.386Z,4.60
2024-01-16T19:33:16.634Z,7.93
2024-01-16T19:35:44.807Z,5.15
2024-01-16T19:38:13.730Z,4.57
2024-01-16T19:40:41.803Z,6.10
2024-01-16T19:43:09.840Z,8.13
2024-01-16T19:45:39.348Z,5.20
2024-01-16T19:48:13.904Z,5.68
2024-01-16T19:50:42.789Z,4.38
2024-01-16T19:53:12.423Z,8.98
2024-01-16T19:55:40.679Z,5.68
2024-01-16T19:58:10.128Z,4.85
2024-01-16T20:00:40.768Z,5.50
2024-01-16T20:03:09.789Z,5.05
2024-01-16T20:05:39.204Z,5.40
2024-01-16T20:08:08.145Z,5.10
2024-01-16T20:10:36.234Z,6.10
2024-01-16T20:13:04.521Z,4.72
2024-01-16T20:15:33.459Z,7.05
2024-01-16T20:18:03.945Z,5.70
2024-01-16T20:20:32.424Z,4.93
2024-01-16T20:23:00.524Z,6.22
2024-01-16T20:25:30.433Z,5.47
2024-01-16T20:27:59.369Z,12.77
2024-01-16T20:30:27.539Z,5.78
2024-01-16T20:32:56.681Z,7.53
2024-01-16T20:37:54.229Z,5.82
2024-01-16T20:40:22.468Z,5.53
2024-01-16T20:42:50.595Z,11.23
2024-01-16T20:45:18.628Z,5.43
2024-01-16T20:47:46.744Z,5.10
2024-01-16T20:50:14.886Z,6.65
2024-01-16T20:52:44.325Z,5.20
2024-01-16T20:55:13.552Z,5.70
2024-01-16T20:57:43.171Z,5.20
2024-01-16T21:00:14.782Z,5.50
2024-01-16T21:02:44.199Z,5.45
2024-01-16T21:05:12.650Z,5.50
2024-01-16T21:07:42.151Z,5.82
2024-01-16T21:10:12.278Z,6.22
2024-01-16T21:12:42.519Z,5.60
2024-01-16T21:15:11.482Z,5.95
2024-01-16T21:17:40.100Z,5.43
2024-01-16T21:20:09.471Z,4.72
2024-01-16T21:25:07.198Z,5.25
2024-01-16T21:27:38.323Z,4.93
2024-01-16T21:30:09.303Z,5.32
2024-01-16T21:32:38.101Z,5.15
2024-01-16T21:35:07.655Z,5.13
2024-01-16T21:37:35.820Z,4.57
2024-01-16T21:40:06.315Z,5.38
2024-01-16T21:42:35.723Z,5.22
2024-01-16T21:45:06.642Z,4.95
2024-01-16T21:47:35.068Z,5.38
2024-01-16T21:50:06.990Z,5.47
2024-01-16T21:52:36.090Z,4.80
2024-01-16T21:55:04.183Z,5.55
2024-01-16T21:57:34.217Z,5.00
2024-01-16T22:00:03.807Z,4.57
2024-01-16T22:02:35.198Z,4.90
2024-01-16T22:05:03.313Z,5.68
2024-01-16T22:07:31.447Z,5.70
2024-01-16T22:09:59.783Z,5.20
2024-01-16T22:12:27.910Z,5.20
2024-01-16T22:14:57.068Z,5.03
2024-01-16T22:17:29.930Z,4.10
2024-01-16T22:19:59.597Z,4.40
2024-01-16T22:22:27.724Z,4.50
2024-01-16T22:24:55.815Z,4.60
2024-01-16T22:27:23.891Z,4.57
2024-01-16T22:29:52.041Z,4.53
2024-01-16T22:32:22.028Z,4.50
2024-01-16T22:34:50.125Z,5.30
2024-01-16T22:37:20.723Z,11.45
2024-01-16T22:39:48.789Z,4.55
2024-01-16T22:42:18.303Z,4.45
2024-01-16T22:44:47.851Z,6.07
2024-01-16T22:47:16.031Z,5.13
2024-01-16T22:49:44.133Z,4.45
2024-01-16T22:52:12.159Z,5.32
2024-01-16T22:54:41.943Z,3.70
2024-01-16T22:57:09.948Z,5.07
2024-01-16T22:59:37.993Z,4.63
2024-01-16T23:02:07.065Z,3.65
2024-01-16T23:04:35.117Z,5.22
2024-01-16T23:07:03.114Z,4.53
2024-01-16T23:09:30.798Z,4.80
2024-01-16T23:12:00.440Z,4.00
2024-01-16T23:14:28.509Z,5.35
2024-01-16T23:16:57.425Z,3.80
2024-01-16T23:19:25.424Z,4.28
2024-01-16T23:21:53.419Z,3.70
2024-01-16T23:24:21.390Z,3.70
2024-01-16T23:26:49.470Z,4.13
2024-01-16T23:29:18.807Z,4.38
2024-01-16T23:31:46.768Z,4.15
2024-01-16T23:34:13.825Z,4.63
2024-01-16T23:36:41.801Z,5.30
2024-01-16T23:39:11.957Z,4.85
2024-01-16T23:41:40.158Z,3.63
2024-01-16T23:44:09.402Z,3.65
2024-01-16T23:46:39.854Z,4.55
2024-01-16T23:49:08.011Z,3.53
2024-01-16T23:51:36.767Z,3.92
2024-01-16T23:54:04.993Z,4.45
2024-01-16T23:56:33.090Z,4.55
2024-01-16T23:59:01.093Z,4.55
